Time;durP1;ratioP1;P1;durP2;ratioP2;P2;SDS_P1;SDS_P2;PMS_P1;PMS_P2;Temp;Humidity;BMP_temperature;BMP_pressure;BME280_temperature;BME280_humidity;BME280_pressure;Samples;Min_cycle;Max_cycle;Signal;HPM_P1;HPM_P2
2021/12/15 00:00:31;;;;;;;93.75;34.58;;;9.90;99.90;;;;;;5039537;28;20103;-66
2021/12/15 00:02:56;;;;;;;92.85;35.33;;;9.80;99.90;;;;;;5057841;28;20080;-66
2021/12/15 00:05:26;;;;;;;92.25;34.67;;;9.90;99.90;;;;;;5057337;28;20085;-67
2021/12/15 00:07:55;;;;;;;93.30;34.70;;;9.90;99.90;;;;;;5057538;28;20049;-68
2021/12/15 00:10:22;;;;;;;87.97;35.63;;;9.90;99.90;;;;;;5039775;28;20526;-68
2021/12/15 00:12:48;;;;;;;87.95;32.72;;;9.90;99.90;;;;;;5057572;28;20056;-67
2021/12/15 00:15:15;;;;;;;84.75;32.88;;;9.90;99.90;;;;;;5057323;28;20053;-68
2021/12/15 00:17:41;;;;;;;85.82;34.00;;;9.90;99.90;;;;;;5057481;28;20052;-68
2021/12/15 00:20:10;;;;;;;79.03;33.88;;;9.90;99.90;;;;;;5039688;28;21037;-68
2021/12/15 00:22:37;;;;;;;86.28;33.70;;;9.90;99.90;;;;;;5056323;28;20053;-68
2021/12/15 00:25:05;;;;;;;84.47;31.92;;;9.90;99.90;;;;;;5039201;28;20049;-67
2021/12/15 00:27:31;;;;;;;84.72;33.42;;;9.90;99.90;;;;;;5057335;28;20053;-66
2021/12/15 00:29:57;;;;;;;81.78;32.58;;;9.90;99.90;;;;;;5038869;28;20041;-66
2021/12/15 00:32:23;;;;;;;74.95;32.75;;;9.90;99.90;;;;;;5056937;28;20060;-67
2021/12/15 00:34:51;;;;;;;79.50;32.70;;;9.90;99.90;;;;;;5056673;28;20381;-68
2021/12/15 00:37:20;;;;;;;73.63;31.55;;;9.90;99.90;;;;;;5039062;28;20052;-67
2021/12/15 00:39:46;;;;;;;70.80;32.78;;;9.90;99.90;;;;;;5039023;28;20052;-67
2021/12/15 00:42:12;;;;;;;89.43;34.10;;;9.90;99.90;;;;;;5051629;28;20450;-68
2021/12/15 00:44:39;;;;;;;82.18;34.08;;;9.90;99.90;;;;;;5039061;28;20055;-66
2021/12/15 00:47:04;;;;;;;87.70;34.45;;;9.90;99.90;;;;;;5056463;28;20044;-67
2021/12/15 00:49:30;;;;;;;78.82;32.45;;;9.90;99.90;;;;;;5056338;28;20045;-67
2021/12/15 00:51:57;;;;;;;80.70;34.75;;;9.90;99.90;;;;;;5057003;28;20048;-66
2021/12/15 00:54:23;;;;;;;85.80;34.17;;;9.90;99.90;;;;;;5056669;28;20401;-66
2021/12/15 00:56:51;;;;;;;73.88;32.22;;;9.90;99.90;;;;;;5022464;28;20057;-67
2021/12/15 00:59:17;;;;;;;90.28;34.50;;;9.90;99.90;;;;;;5055902;28;20057;-68
2021/12/15 01:01:42;;;;;;;69.78;32.28;;;9.90;99.90;;;;;;5055931;28;20373;-67
2021/12/15 01:04:11;;;;;;;85.68;33.50;;;9.90;99.90;;;;;;5056482;28;20061;-67
2021/12/15 01:06:40;;;;;;;80.03;36.17;;;9.90;99.90;;;;;;5055972;28;20458;-67
2021/12/15 01:09:12;;;;;;;77.55;33.45;;;9.90;99.90;;;;;;5038582;28;20056;-66
2021/12/15 01:12:10;;;;;;;78.70;32.58;;;9.90;99.90;;;;;;5056337;28;20037;-67
2021/12/15 01:20:23;;;;;;;73.30;33.00;;;9.90;99.90;;;;;;5056350;28;20049;-67
2021/12/15 01:22:52;;;;;;;;;;;9.90;99.90;;;;;;5039083;28;20190;-66
2021/12/15 01:25:23;;;;;;;78.35;33.38;;;9.90;99.90;;;;;;5055873;28;19994;-67
2021/12/15 01:27:50;;;;;;;81.90;33.78;;;9.90;99.90;;;;;;5038245;28;20045;-68
2021/12/15 01:30:19;;;;;;;82.05;33.38;;;9.90;99.90;;;;;;5037390;28;20044;-68
2021/12/15 01:32:45;;;;;;;89.03;34.17;;;9.90;99.90;;;;;;5042330;28;20360;-66
2021/12/15 01:35:12;;;;;;;79.80;35.15;;;9.90;99.90;;;;;;5075568;28;20437;-66
2021/12/15 01:37:38;;;;;;;80.20;33.58;;;9.90;99.90;;;;;;5058397;28;20083;-67
2021/12/15 01:40:07;;;;;;;74.47;33.58;;;9.90;99.90;;;;;;5058113;28;20044;-67
2021/12/15 01:42:34;;;;;;;77.75;34.22;;;10.00;99.90;;;;;;5075359;28;20048;-67
2021/12/15 01:47:45;;;;;;;94.10;35.80;;;10.00;99.90;;;;;;5075517;28;20139;-67
2021/12/15 01:50:12;;;;;;;87.78;35.60;;;9.90;99.90;;;;;;5058560;28;20067;-68
2021/12/15 01:52:40;;;;;;;81.22;33.28;;;10.00;99.90;;;;;;5075491;28;20467;-67
2021/12/15 01:55:18;;;;;;;84.30;34.90;;;10.00;99.90;;;;;;5058101;28;20047;-68
2021/12/15 01:57:44;;;;;;;79.72;35.67;;;9.90;99.90;;;;;;5075498;28;20109;-67
2021/12/15 02:00:14;;;;;;;86.78;34.78;;;10.00;99.90;;;;;;5057311;28;20063;-66
2021/12/15 02:02:40;;;;;;;80.60;35.08;;;10.00;99.90;;;;;;5058187;28;20053;-66
2021/12/15 02:05:06;;;;;;;89.28;35.42;;;9.90;99.90;;;;;;5075304;28;20044;-67
2021/12/15 02:07:33;;;;;;;87.05;34.55;;;9.90;99.90;;;;;;5057490;28;20113;-66
2021/12/15 02:12:31;;;;;;;86.88;35.17;;;10.00;99.90;;;;;;5057429;28;20069;-67
2021/12/15 02:14:57;;;;;;;79.65;35.28;;;10.00;99.90;;;;;;5058343;28;20060;-67
2021/12/15 02:17:23;;;;;;;95.85;35.97;;;10.00;99.90;;;;;;5075512;28;20330;-68
2021/12/15 02:19:49;;;;;;;88.95;36.17;;;10.00;99.90;;;;;;5057328;28;20056;-66
2021/12/15 02:22:15;;;;;;;78.50;33.92;;;10.00;99.90;;;;;;5056856;28;20480;-68
2021/12/15 02:24:42;;;;;;;84.32;33.55;;;10.00;99.90;;;;;;5074990;28;20054;-67
2021/12/15 02:27:11;;;;;;;93.20;36.28;;;10.00;99.90;;;;;;5074779;28;20052;-68
2021/12/15 02:29:40;;;;;;;84.78;35.00;;;10.00;99.90;;;;;;5056793;28;20049;-67
2021/12/15 02:32:18;;;;;;;82.70;35.20;;;10.00;99.90;;;;;;5074551;28;20052;-68
2021/12/15 02:39:47;;;;;;;93.40;35.70;;;10.00;99.90;;;;;;5074753;28;20052;-67
2021/12/15 02:42:13;;;;;;;85.82;35.53;;;10.00;99.90;;;;;;5057080;28;20063;-66
2021/12/15 02:44:43;;;;;;;82.18;35.05;;;10.00;99.90;;;;;;5057782;28;20347;-67
2021/12/15 02:47:11;;;;;;;90.60;36.70;;;10.00;99.90;;;;;;5076769;28;20444;-66
2021/12/15 02:49:38;;;;;;;96.10;36.83;;;10.00;99.90;;;;;;5079318;28;20064;-67
2021/12/15 02:52:05;;;;;;;96.50;36.42;;;10.00;99.90;;;;;;5078806;28;20037;-67
2021/12/15 02:54:31;;;;;;;88.53;36.58;;;10.00;99.90;;;;;;5061265;28;20433;-66
2021/12/15 02:57:04;;;;;;;90.22;36.97;;;10.00;99.90;;;;;;5079064;28;20119;-67
2021/12/15 02:59:39;;;;;;;89.32;36.40;;;10.00;99.90;;;;;;5060902;28;20461;-67
2021/12/15 03:02:55;;;;;;;87.05;35.08;;;10.00;99.90;;;;;;5078648;28;20056;-65
2021/12/15 03:05:06;;;;;;;95.25;35.78;;;10.00;99.90;;;;;;5059938;28;20436;-66
2021/12/15 03:07:41;;;;;;;95.40;38.40;;;10.00;99.90;;;;;;5060752;28;20056;-66
2021/12/15 03:15:39;;;;;;;91.70;37.42;;;10.00;99.90;;;;;;5078279;28;20109;-66
2021/12/15 03:18:09;;;;;;;95.93;38.30;;;10.00;99.90;;;;;;5061089;28;20419;-66
2021/12/15 03:20:49;;;;;;;93.30;38.15;;;10.00;99.90;;;;;;5060752;28;20117;-67
2021/12/15 03:23:25;;;;;;;91.30;37.80;;;10.00;99.90;;;;;;5060402;28;20127;-65
2021/12/15 03:25:52;;;;;;;93.63;38.63;;;10.00;99.90;;;;;;5060806;28;20068;-68
2021/12/15 03:36:40;;;;;;;92.78;36.88;;;10.00;99.90;;;;;;5020151;28;20053;-67
2021/12/15 03:39:12;;;;;;;87.32;37.33;;;10.00;99.90;;;;;;5021117;28;20073;-66
2021/12/15 03:41:37;;;;;;;92.95;37.28;;;10.00;99.90;;;;;;5020704;28;20099;-68
2021/12/15 03:44:05;;;;;;;94.82;37.90;;;10.00;99.90;;;;;;5020542;28;20049;-67
2021/12/15 03:46:31;;;;;;;95.32;39.63;;;10.00;99.90;;;;;;5037784;28;20327;-68
2021/12/15 03:48:57;;;;;;;105.32;38.20;;;10.00;99.90;;;;;;5020945;28;20053;-66
2021/12/15 03:51:23;;;;;;;96.68;37.50;;;10.00;99.90;;;;;;5020744;28;20060;-67
2021/12/15 03:53:49;;;;;;;104.78;38.28;;;10.00;99.90;;;;;;5020265;28;20045;-67
2021/12/15 03:56:15;;;;;;;100.03;37.95;;;10.00;99.90;;;;;;5037940;28;20053;-68
2021/12/15 03:58:42;;;;;;;96.32;38.85;;;10.00;99.90;;;;;;5040412;28;20061;-68
2021/12/15 04:01:12;;;;;;;103.38;39.05;;;10.00;99.90;;;;;;5036531;28;20049;-66
2021/12/15 04:03:41;;;;;;;99.70;39.00;;;9.90;99.90;;;;;;5020979;28;20050;-66
2021/12/15 04:06:11;;;;;;;106.03;38.83;;;10.00;99.90;;;;;;5019957;28;20045;-67
2021/12/15 04:08:40;;;;;;;93.07;38.20;;;10.00;99.90;;;;;;5037433;28;20049;-66
2021/12/15 04:11:08;;;;;;;98.32;37.92;;;10.00;99.90;;;;;;5037153;28;20095;-66
2021/12/15 04:13:34;;;;;;;111.10;38.75;;;9.90;99.90;;;;;;5019800;28;20061;-66
2021/12/15 04:16:06;;;;;;;105.13;38.85;;;10.00;99.90;;;;;;5037019;28;20057;-68
2021/12/15 04:18:33;;;;;;;105.50;40.97;;;9.90;99.90;;;;;;5037487;28;20125;-66
2021/12/15 04:20:59;;;;;;;98.10;39.75;;;9.90;99.90;;;;;;5037261;28;20053;-66
2021/12/15 04:23:24;;;;;;;107.47;40.08;;;10.00;99.90;;;;;;5019770;28;20049;-66
2021/12/15 04:25:54;;;;;;;107.00;40.15;;;9.90;99.90;;;;;;5037437;28;20041;-67
2021/12/15 04:28:26;;;;;;;108.03;41.72;;;10.00;99.90;;;;;;5021653;28;20049;-68
2021/12/15 04:30:56;;;;;;;103.15;39.05;;;10.00;99.90;;;;;;5056879;28;20049;-68
2021/12/15 04:33:36;;;;;;;97.80;38.80;;;9.90;99.90;;;;;;5031600;28;20052;-68
2021/12/15 04:36:06;;;;;;;104.93;40.55;;;10.00;99.90;;;;;;5074930;28;20147;-65
2021/12/15 04:38:33;;;;;;;109.65;40.45;;;9.90;99.90;;;;;;5039234;28;20454;-67
2021/12/15 04:41:05;;;;;;;103.10;40.13;;;9.90;99.90;;;;;;5056936;28;20099;-67
2021/12/15 04:43:34;;;;;;;109.88;42.13;;;10.00;99.90;;;;;;5056714;28;20045;-68
2021/12/15 04:46:02;;;;;;;109.45;40.90;;;9.90;99.90;;;;;;5038969;28;20114;-67
2021/12/15 04:48:28;;;;;;;101.22;39.05;;;9.90;99.90;;;;;;5056568;28;20416;-66
2021/12/15 04:50:53;;;;;;;97.18;37.58;;;10.00;99.90;;;;;;5039132;28;20055;-66
2021/12/15 04:53:19;;;;;;;98.40;40.20;;;9.90;99.90;;;;;;5038677;28;20071;-66
2021/12/15 04:55:44;;;;;;;98.45;41.60;;;10.00;99.90;;;;;;5039715;28;20135;-66
2021/12/15 04:58:11;;;;;;;102.32;39.33;;;9.90;99.90;;;;;;5056930;28;20203;-69
2021/12/15 05:00:45;;;;;;;110.30;43.70;;;9.90;99.90;;;;;;5041804;28;20047;-68
2021/12/15 05:03:10;;;;;;;116.72;41.10;;;9.90;99.90;;;;;;5076719;28;20444;-67
2021/12/15 05:05:37;;;;;;;110.38;40.10;;;10.00;99.90;;;;;;5075261;28;20064;-69
2021/12/15 05:08:04;;;;;;;105.22;41.38;;;10.10;99.90;;;;;;5065885;28;20060;-68
2021/12/15 05:10:30;;;;;;;108.22;41.75;;;9.90;99.90;;;;;;5037867;28;20091;-68
2021/12/15 05:12:57;;;;;;;107.90;41.45;;;9.90;99.90;;;;;;5072574;28;20095;-68
2021/12/15 05:15:24;;;;;;;103.25;39.25;;;9.90;99.90;;;;;;5058719;28;20044;-68
2021/12/15 05:17:49;;;;;;;102.95;41.67;;;10.00;99.90;;;;;;5075558;28;20071;-67
2021/12/15 05:20:15;;;;;;;103.70;41.75;;;9.90;99.90;;;;;;5058189;28;20044;-67
2021/12/15 05:22:41;;;;;;;97.93;41.10;;;9.90;99.90;;;;;;5042350;28;20083;-68
2021/12/15 05:25:08;;;;;;;107.53;41.78;;;10.00;99.90;;;;;;5059213;28;20052;-67
2021/12/15 05:27:34;;;;;;;98.65;40.47;;;9.90;99.90;;;;;;5049302;28;20135;-67
2021/12/15 05:30:00;;;;;;;96.60;40.45;;;9.90;99.90;;;;;;5055645;28;20059;-67
2021/12/15 05:32:26;;;;;;;104.93;42.25;;;9.90;99.90;;;;;;5038102;28;20374;-68
2021/12/15 05:34:56;;;;;;;100.53;41.83;;;9.90;99.90;;;;;;5037619;28;20061;-67
2021/12/15 05:37:22;;;;;;;107.32;42.38;;;9.90;99.90;;;;;;5038716;28;20376;-67
2021/12/15 05:39:49;;;;;;;96.05;42.15;;;9.90;99.90;;;;;;5037932;28;20156;-67
2021/12/15 05:42:19;;;;;;;96.22;40.65;;;9.90;99.90;;;;;;5055616;28;20453;-69
2021/12/15 05:44:45;;;;;;;97.35;39.63;;;9.90;99.90;;;;;;5055169;28;20064;-68
2021/12/15 05:47:11;;;;;;;99.18;40.70;;;9.90;99.90;;;;;;5037930;28;20048;-66
2021/12/15 05:49:36;;;;;;;105.28;41.08;;;9.90;99.90;;;;;;5055469;28;20071;-67
2021/12/15 05:52:03;;;;;;;103.22;41.92;;;9.90;99.90;;;;;;5055476;28;20095;-68
2021/12/15 05:54:29;;;;;;;101.85;40.55;;;9.90;99.90;;;;;;5038071;28;20055;-68
2021/12/15 05:56:55;;;;;;;100.60;41.22;;;9.90;99.90;;;;;;5055471;28;20037;-67
2021/12/15 05:59:21;;;;;;;104.65;41.97;;;10.00;99.90;;;;;;5037641;28;20053;-67
2021/12/15 06:01:47;;;;;;;102.53;40.97;;;9.90;99.90;;;;;;5037789;28;20365;-65
2021/12/15 06:04:13;;;;;;;91.13;40.33;;;10.00;99.90;;;;;;5055273;28;20076;-68
2021/12/15 06:06:39;;;;;;;108.30;40.95;;;10.40;99.90;;;;;;5055476;28;20088;-67
2021/12/15 06:09:07;;;;;;;99.63;41.65;;;9.90;99.90;;;;;;5037428;28;20040;-68
2021/12/15 06:11:34;;;;;;;92.85;42.00;;;9.90;99.90;;;;;;5055208;28;20114;-67
2021/12/15 06:14:00;;;;;;;106.38;42.63;;;10.00;99.90;;;;;;5037910;28;20064;-68
2021/12/15 06:16:26;;;;;;;106.35;42.50;;;9.90;99.90;;;;;;5055263;28;20040;-68
2021/12/15 06:18:52;;;;;;;110.40;43.92;;;9.90;99.90;;;;;;5037439;28;20080;-69
2021/12/15 06:21:19;;;;;;;99.30;41.42;;;9.90;99.90;;;;;;5036251;28;20037;-69
2021/12/15 06:23:47;;;;;;;95.47;40.03;;;10.00;99.90;;;;;;5055256;28;20063;-68
2021/12/15 06:26:14;;;;;;;94.95;41.67;;;9.90;99.90;;;;;;5037489;28;20449;-67
2021/12/15 06:28:39;;;;;;;96.80;40.15;;;9.90;99.90;;;;;;5030040;28;21781;-66
2021/12/15 06:31:08;;;;;;;97.40;42.00;;;9.90;99.90;;;;;;5035703;28;20045;-69
2021/12/15 06:33:35;;;;;;;97.95;41.25;;;10.00;99.90;;;;;;5053625;28;20060;-67
2021/12/15 06:36:03;;;;;;;93.60;42.90;;;10.00;99.90;;;;;;4998397;28;20533;-68
2021/12/15 06:38:37;;;;;;;93.93;41.22;;;9.90;99.90;;;;;;5020393;28;20120;-67
2021/12/15 06:41:05;;;;;;;94.45;39.97;;;9.90;99.90;;;;;;5054649;28;20044;-67
2021/12/15 06:43:31;;;;;;;100.85;43.25;;;9.90;99.90;;;;;;5054289;28;20377;-67
2021/12/15 06:46:14;;;;;;;92.57;40.72;;;9.90;99.90;;;;;;5037026;28;20111;-69
2021/12/15 06:59:37;;;;;;;94.72;40.35;;;9.90;99.90;;;;;;5034754;28;20049;-69
2021/12/15 07:02:04;;;;;;;96.93;42.10;;;9.90;99.90;;;;;;5053002;28;20037;-69
2021/12/15 07:04:29;;;;;;;83.82;39.50;;;9.90;99.90;;;;;;5032515;28;20057;-70
2021/12/15 07:06:56;;;;;;;90.00;40.65;;;9.90;99.90;;;;;;5046774;28;20385;-68
2021/12/15 07:09:22;;;;;;;97.10;41.35;;;9.90;99.90;;;;;;5047020;28;20130;-68
2021/12/15 07:11:50;;;;;;;88.07;40.38;;;10.00;99.90;;;;;;5053932;28;20049;-69
2021/12/15 07:14:16;;;;;;;90.32;40.97;;;9.90;99.90;;;;;;5054418;28;20053;-68
2021/12/15 07:16:45;;;;;;;90.95;40.47;;;9.90;99.90;;;;;;5033295;28;20049;-68
2021/12/15 07:22:08;;;;;;;82.53;39.15;;;9.90;99.90;;;;;;5033551;28;20442;-69
2021/12/15 07:24:35;;;;;;;92.38;39.03;;;9.90;99.90;;;;;;5034360;28;20091;-68
2021/12/15 07:27:03;;;;;;;91.97;41.63;;;9.90;99.90;;;;;;5042972;28;20091;-69
2021/12/15 07:29:29;;;;;;;91.03;41.22;;;9.90;99.90;;;;;;5032491;28;20509;-70
2021/12/15 07:31:56;;;;;;;92.32;40.63;;;9.90;99.90;;;;;;5043076;28;20123;-68
2021/12/15 07:34:22;;;;;;;93.13;40.00;;;9.90;99.90;;;;;;5052731;28;20056;-69
2021/12/15 07:36:48;;;;;;;81.07;40.75;;;9.90;99.90;;;;;;5057813;28;20049;-68
2021/12/15 07:39:15;;;;;;;80.07;37.13;;;9.90;99.90;;;;;;5056984;28;20114;-71
2021/12/15 07:41:50;;;;;;;91.50;40.20;;;9.90;99.90;;;;;;5057993;28;20044;-69
2021/12/15 07:44:17;;;;;;;83.88;39.05;;;9.90;99.90;;;;;;5056638;28;20053;-68
2021/12/15 07:46:44;;;;;;;84.63;39.28;;;9.90;99.90;;;;;;5057564;28;20088;-68
2021/12/15 07:49:12;;;;;;;85.20;38.05;;;9.90;99.90;;;;;;5056717;28;20059;-69
2021/12/15 07:51:40;;;;;;;82.95;38.35;;;9.90;99.90;;;;;;5056500;28;20485;-67
2021/12/15 07:54:06;;;;;;;94.95;38.60;;;9.90;99.90;;;;;;5055732;28;20036;-69
2021/12/15 07:56:32;;;;;;;81.72;35.65;;;9.90;99.90;;;;;;5057747;28;20037;-66
2021/12/15 07:58:58;;;;;;;71.78;36.03;;;10.00;99.90;;;;;;5057213;28;20048;-67
2021/12/15 08:01:24;;;;;;;84.45;37.53;;;10.00;99.90;;;;;;5076647;28;20059;-69
2021/12/15 08:03:54;;;;;;;81.07;35.83;;;10.00;99.90;;;;;;5056916;28;20045;-68
2021/12/15 08:06:20;;;;;;;70.68;34.05;;;10.00;99.90;;;;;;5068651;28;20457;-68
2021/12/15 08:08:46;;;;;;;63.80;33.10;;;10.00;99.90;;;;;;5076874;28;20066;-69
2021/12/15 08:11:12;;;;;;;69.47;33.15;;;10.00;99.90;;;;;;5076948;28;20115;-68
2021/12/15 08:13:38;;;;;;;69.32;32.83;;;10.00;99.90;;;;;;5058759;28;20091;-69
2021/12/15 08:16:05;;;;;;;75.60;32.40;;;10.00;99.90;;;;;;5059528;28;20071;-68
2021/12/15 08:18:31;;;;;;;66.25;31.58;;;10.00;99.90;;;;;;5054890;28;20044;-69
2021/12/15 08:20:58;;;;;;;74.63;31.45;;;10.00;99.90;;;;;;5076670;28;20133;-67
2021/12/15 08:23:24;;;;;;;58.40;29.15;;;10.00;99.90;;;;;;5076105;28;20476;-69
2021/12/15 08:25:50;;;;;;;60.88;29.95;;;10.00;99.90;;;;;;5059217;28;20048;-69
2021/12/15 08:28:17;;;;;;;63.78;27.67;;;10.10;99.90;;;;;;5047226;28;20060;-69
2021/12/15 08:30:46;;;;;;;58.47;27.92;;;10.10;99.90;;;;;;5058016;28;20098;-69
2021/12/15 08:33:17;;;;;;;60.05;29.15;;;10.10;99.90;;;;;;5055633;28;20080;-68
2021/12/15 08:35:46;;;;;;;64.45;28.67;;;10.10;99.90;;;;;;5052539;28;20400;-68
2021/12/15 08:38:12;;;;;;;51.50;26.10;;;10.10;99.90;;;;;;5076285;28;20465;-68
2021/12/15 08:40:39;;;;;;;68.25;28.77;;;10.10;99.90;;;;;;5055438;28;20052;-68
2021/12/15 08:43:07;;;;;;;55.45;28.05;;;10.10;99.90;;;;;;5064122;28;20098;-69
2021/12/15 08:45:34;;;;;;;62.42;28.70;;;10.10;99.90;;;;;;5075499;28;20377;-69
2021/12/15 08:48:00;;;;;;;59.38;30.02;;;10.10;99.90;;;;;;5055578;28;20393;-68
2021/12/15 08:50:29;;;;;;;62.65;29.23;;;10.10;99.90;;;;;;5055904;28;20041;-68
2021/12/15 08:52:56;;;;;;;58.03;28.23;;;10.20;99.90;;;;;;5065999;28;20044;-67
2021/12/15 08:55:23;;;;;;;61.03;29.00;;;10.20;99.90;;;;;;5059966;28;20110;-67
2021/12/15 08:57:52;;;;;;;58.08;28.20;;;10.20;99.90;;;;;;5053159;28;20048;-69
2021/12/15 09:00:19;;;;;;;56.08;27.42;;;10.20;99.90;;;;;;5055851;28;20053;-69
2021/12/15 09:02:46;;;;;;;55.42;28.58;;;10.20;99.90;;;;;;5056203;28;20060;-69
2021/12/15 09:05:13;;;;;;;53.80;27.88;;;10.20;99.90;;;;;;5055311;28;20519;-69
2021/12/15 09:07:43;;;;;;;61.63;29.75;;;10.20;99.90;;;;;;5061857;28;20040;-68
2021/12/15 09:10:10;;;;;;;55.58;27.85;;;10.30;99.90;;;;;;5055739;28;20092;-68
2021/12/15 09:12:37;;;;;;;57.00;26.95;;;10.30;99.90;;;;;;5047425;28;20045;-69
2021/12/15 09:15:03;;;;;;;50.35;27.55;;;10.20;99.90;;;;;;5073294;28;20048;-68
2021/12/15 09:17:29;;;;;;;54.22;27.23;;;10.30;99.90;;;;;;5058118;28;20120;-67
2021/12/15 09:19:55;;;;;;;57.20;27.73;;;10.30;99.90;;;;;;5055015;28;20456;-70
2021/12/15 09:22:21;;;;;;;52.10;27.40;;;10.40;99.90;;;;;;5057604;28;20111;-68
2021/12/15 09:24:47;;;;;;;55.70;28.20;;;10.30;99.90;;;;;;5058307;28;20117;-68
2021/12/15 09:27:15;;;;;;;59.28;28.58;;;10.40;99.90;;;;;;5056851;28;20123;-67
2021/12/15 09:29:41;;;;;;;51.40;26.42;;;10.40;99.90;;;;;;5058744;28;20365;-68
2021/12/15 09:32:07;;;;;;;51.88;26.05;;;10.40;99.90;;;;;;5058399;28;20060;-69
2021/12/15 09:34:32;;;;;;;50.30;26.65;;;10.40;99.90;;;;;;5040490;28;20041;-69
2021/12/15 09:36:58;;;;;;;51.75;26.55;;;10.40;99.90;;;;;;5055581;28;20048;-67
2021/12/15 09:39:24;;;;;;;51.30;26.15;;;10.40;99.90;;;;;;5055880;28;20049;-69
2021/12/15 09:41:52;;;;;;;51.47;25.98;;;10.30;99.90;;;;;;5037152;28;20048;-67
2021/12/15 09:44:21;;;;;;;49.53;25.02;;;10.30;99.90;;;;;;5037903;28;20041;-69
2021/12/15 10:01:57;;;;;;;52.00;26.27;;;10.00;99.90;;;;;;5040224;28;20390;-69
2021/12/15 10:06:25;;;;;;;46.92;23.23;;;10.00;99.90;;;;;;5035208;28;20107;-68
2021/12/15 10:12:06;;;;;;;41.58;22.05;;;10.00;99.90;;;;;;5017982;28;20045;-68
2021/12/15 10:19:53;;;;;;;38.40;20.25;;;10.10;99.90;;;;;;5018063;28;20382;-69
2021/12/15 10:25:00;;;;;;;37.35;19.70;;;10.30;99.90;;;;;;5034976;28;20053;-69
2021/12/15 10:27:35;;;;;;;34.53;20.65;;;10.30;99.90;;;;;;5034129;28;20049;-68
2021/12/15 10:30:13;;;;;;;36.45;18.40;;;10.40;99.90;;;;;;5037852;28;20059;-68
2021/12/15 10:32:42;;;;;;;32.75;18.27;;;10.50;99.90;;;;;;5037122;28;20146;-70
2021/12/15 10:35:16;;;;;;;32.65;17.65;;;10.50;99.90;;;;;;5054817;28;20433;-68
2021/12/15 10:37:42;;;;;;;29.27;18.20;;;10.50;99.90;;;;;;5020862;28;20049;-69
2021/12/15 10:40:16;;;;;;;29.30;17.50;;;10.50;99.90;;;;;;5054693;28;20041;-68
2021/12/15 10:42:42;;;;;;;27.88;17.15;;;10.50;99.90;;;;;;5054528;28;20513;-69
2021/12/15 10:45:11;;;;;;;30.73;17.25;;;10.60;99.90;;;;;;5054669;28;20063;-68
2021/12/15 10:47:50;;;;;;;29.58;17.25;;;10.60;99.90;;;;;;5036923;28;20063;-67
2021/12/15 10:50:22;;;;;;;29.13;15.77;;;10.60;99.90;;;;;;5054285;28;20385;-68
2021/12/15 10:52:59;;;;;;;31.20;16.83;;;10.70;99.90;;;;;;5037202;28;20051;-70
2021/12/15 10:55:35;;;;;;;33.20;16.48;;;10.80;99.90;;;;;;5035981;28;20056;-69
2021/12/15 10:58:32;;;;;;;34.60;16.13;;;10.70;99.90;;;;;;5054670;28;20055;-68
2021/12/15 11:00:57;;;;;;;27.15;16.08;;;10.80;99.90;;;;;;5054646;28;20084;-68
2021/12/15 11:03:33;;;;;;;25.00;14.32;;;11.00;99.90;;;;;;5037737;28;20246;-69
2021/12/15 11:06:00;;;;;;;29.45;15.20;;;10.90;99.90;;;;;;5033199;28;20572;-68
2021/12/15 11:08:25;;;;;;;30.27;14.38;;;10.90;99.90;;;;;;5036823;28;20442;-69
2021/12/15 11:10:53;;;;;;;27.70;13.65;;;10.90;99.90;;;;;;5037862;28;20060;-69
2021/12/15 11:13:19;;;;;;;26.80;13.73;;;10.90;99.90;;;;;;5020967;28;20056;-67
2021/12/15 11:15:52;;;;;;;24.55;14.20;;;10.90;99.90;;;;;;5037073;28;20458;-69
2021/12/15 11:18:23;;;;;;;24.42;13.15;;;11.00;99.90;;;;;;5038628;28;20369;-69
2021/12/15 11:21:02;;;;;;;21.58;12.95;;;11.00;99.90;;;;;;5038018;28;20068;-69
2021/12/15 11:23:30;;;;;;;24.15;12.82;;;11.00;99.90;;;;;;5020908;28;20118;-69
2021/12/15 11:25:59;;;;;;;24.02;12.95;;;11.00;99.90;;;;;;5025458;28;20059;-69
2021/12/15 11:28:30;;;;;;;21.90;11.65;;;11.00;99.90;;;;;;5040078;28;20531;-67
2021/12/15 11:31:11;;;;;;;21.02;12.07;;;11.00;99.90;;;;;;5058334;28;20063;-67
2021/12/15 11:33:44;;;;;;;25.95;11.63;;;11.00;99.90;;;;;;5057994;28;20212;-67
2021/12/15 11:36:33;;;;;;;25.40;11.60;;;11.10;99.90;;;;;;5057861;28;20136;-68
2021/12/15 11:39:08;;;;;;;23.40;11.77;;;11.10;99.90;;;;;;5057440;28;20453;-67
2021/12/15 11:41:36;;;;;;;22.42;11.10;;;11.10;99.90;;;;;;5040732;28;20132;-69
2021/12/15 11:44:15;;;;;;;21.00;11.05;;;11.10;99.90;;;;;;5057446;28;20045;-68
2021/12/15 11:46:45;;;;;;;21.65;11.27;;;11.10;99.90;;;;;;5040143;28;20048;-67
2021/12/15 11:49:23;;;;;;;20.08;10.43;;;11.10;99.90;;;;;;5057525;28;20061;-69
2021/12/15 11:51:52;;;;;;;19.08;11.23;;;11.10;99.90;;;;;;5040741;28;20323;-67
2021/12/15 11:54:38;;;;;;;27.58;10.80;;;11.10;99.90;;;;;;5057816;28;20102;-69
2021/12/15 11:57:16;;;;;;;19.02;10.25;;;11.10;99.90;;;;;;5040340;28;20139;-69
2021/12/15 11:59:49;;;;;;;21.42;11.15;;;11.10;99.90;;;;;;5057638;28;20127;-69
2021/12/15 12:02:26;;;;;;;22.90;10.65;;;11.00;99.90;;;;;;5039931;28;20052;-69
2021/12/15 12:04:55;;;;;;;18.65;10.73;;;11.00;99.90;;;;;;5056961;28;20045;-69
2021/12/15 12:07:35;;;;;;;21.15;10.35;;;11.10;99.90;;;;;;5057408;28;20389;-69
2021/12/15 12:10:21;;;;;;;19.15;9.57;;;11.10;99.90;;;;;;5056913;28;20135;-67
2021/12/15 12:12:54;;;;;;;19.95;9.70;;;11.10;99.90;;;;;;5039846;28;20099;-67
2021/12/15 12:15:24;;;;;;;17.70;9.63;;;11.10;99.90;;;;;;5023483;28;20126;-69
2021/12/15 12:17:52;;;;;;;16.35;8.57;;;11.20;99.90;;;;;;5040073;28;20053;-69
2021/12/15 12:20:24;;;;;;;15.05;8.48;;;11.20;99.90;;;;;;5055807;28;20489;-66
2021/12/15 12:22:54;;;;;;;15.85;8.50;;;11.20;99.90;;;;;;5039120;28;20053;-68
2021/12/15 12:25:23;;;;;;;14.82;8.30;;;11.20;99.90;;;;;;5039237;28;20056;-68
2021/12/15 12:27:49;;;;;;;17.50;8.23;;;11.10;99.90;;;;;;5056903;28;20044;-67
2021/12/15 12:30:25;;;;;;;17.55;8.30;;;11.20;99.90;;;;;;5057214;28;20037;-67
2021/12/15 12:32:52;;;;;;;15.23;7.47;;;11.20;99.90;;;;;;5056368;28;20057;-67
2021/12/15 12:35:22;;;;;;;18.85;8.45;;;11.20;99.90;;;;;;5039930;28;20053;-67
2021/12/15 12:37:55;;;;;;;15.15;8.50;;;11.10;99.90;;;;;;5056564;28;20495;-67
2021/12/15 12:40:27;;;;;;;15.45;8.90;;;11.10;99.90;;;;;;5023081;28;20381;-67
2021/12/15 12:42:53;;;;;;;19.85;8.32;;;11.10;99.90;;;;;;5039280;28;20132;-67
2021/12/15 12:45:36;;;;;;;17.23;8.75;;;11.00;99.90;;;;;;5038994;28;20068;-70
2021/12/15 12:59:32;;;;;;;14.77;6.97;;;10.80;99.90;;;;;;5056701;28;20055;-68
2021/12/15 13:01:58;;;;;;;18.48;7.30;;;10.80;99.90;;;;;;5055821;28;20110;-68
2021/12/15 13:04:40;;;;;;;15.13;7.13;;;10.80;99.90;;;;;;5055777;28;20129;-68
2021/12/15 13:07:06;;;;;;;16.00;6.53;;;10.80;99.90;;;;;;5056624;28;20045;-69
2021/12/15 13:09:47;;;;;;;13.05;6.07;;;10.80;99.90;;;;;;5038827;28;20063;-67
2021/12/15 13:12:18;;;;;;;13.82;5.35;;;10.70;99.90;;;;;;5038113;28;20056;-67
2021/12/15 13:14:43;;;;;;;14.80;6.07;;;10.70;99.90;;;;;;5038106;28;20080;-68
2021/12/15 13:17:24;;;;;;;14.52;4.90;;;10.70;99.90;;;;;;5038573;28;20486;-69
2021/12/15 13:19:51;;;;;;;10.93;4.60;;;10.70;99.90;;;;;;5056705;28;20135;-67
2021/12/15 13:30:55;;;;;;;9.45;4.05;;;10.50;99.90;;;;;;5055498;28;20049;-68
2021/12/15 13:33:29;;;;;;;7.60;4.05;;;10.50;99.90;;;;;;5055492;28;20065;-69
2021/12/15 13:35:57;;;;;;;12.63;4.45;;;10.50;99.90;;;;;;5055825;28;20049;-68
2021/12/15 13:38:38;;;;;;;11.90;4.35;;;10.50;99.90;;;;;;5038015;28;20059;-67
2021/12/15 13:41:44;;;;;;;10.02;3.85;;;10.40;99.90;;;;;;5055814;28;20071;-69
2021/12/15 13:44:15;;;;;;;9.52;4.00;;;10.40;99.90;;;;;;5037692;28;20117;-67
2021/12/15 13:46:46;;;;;;;11.63;3.80;;;10.30;99.90;;;;;;5054899;28;20302;-69
2021/12/15 13:49:28;;;;;;;9.77;3.72;;;10.20;99.90;;;;;;5055266;28;20473;-70
2021/12/15 13:52:07;;;;;;;10.23;3.72;;;10.10;99.90;;;;;;5055351;28;20056;-67
2021/12/15 13:54:33;;;;;;;12.30;3.60;;;10.00;99.90;;;;;;5037800;28;20072;-69
2021/12/15 13:57:03;;;;;;;7.95;3.67;;;10.00;99.90;;;;;;5055298;28;20365;-67
2021/12/15 13:59:32;;;;;;;10.05;3.75;;;9.90;99.90;;;;;;5055297;28;20061;-67
2021/12/15 14:02:15;;;;;;;10.32;3.80;;;9.90;99.90;;;;;;5055211;28;20167;-68
2021/12/15 14:04:43;;;;;;;8.68;3.30;;;9.80;99.90;;;;;;5038405;28;20357;-69
2021/12/15 14:07:27;;;;;;;10.50;3.78;;;9.80;99.90;;;;;;5038129;28;20134;-69
2021/12/15 14:09:54;;;;;;;7.22;3.45;;;9.90;99.90;;;;;;5055249;28;20053;-68
2021/12/15 14:12:49;;;;;;;5.78;3.33;;;9.60;99.90;;;;;;5055160;28;20045;-69